Lawrenceville, IL

2:59 AM CST on March 05, 2015 (GMT -0600)
Olney-Noble | Change Station
CLOSE
Current Station
Airport
Location: Olney-Noble,
Elevation: 482 ft
Nearby Weather Stations

Elev 482 ft 38.72 °N, 88.18 °W | Updated 24 minutes ago

Overcast
Overcast
19 °F
Feels Like 8 °F
N
10
Wind Variable Wind from North

Today
High -- | Low -- °F
--% Chance of Precip.
Yesterday
High -- | Low -- °F
Precip. -- in
6:17 AM 5:47 PM
Full, 100% visible
Pressure 30.34 in
Visibility 10.0 miles
Clouds Scattered Clouds 11000 ft
Windchill 8 °F
Dew Point 9 °F
Humidity 63%
Rainfall 0.00 in
Snow Depth Not available.
UV 0 out of 12
Pollen .70 out of 12
Air Quality Not available.
Flu Activity Not available.
METAR KOLY 050835Z AUTO 35009KT 10SM SCT110 M07/M13 A3034 RMK AO2

More Conditions Fewer Conditions

Pressure 30.34 in
Visibility 10.0 miles
Clouds Scattered Clouds 11000 ft
Windchill 8 °F
Dew Point 9 °F
Humidity 63%
Rainfall 0.00 in
Snow Depth Not available.
UV 0 out of 12
Pollen .70 out of 12
Air Quality Not available.
Flu Activity Not available.
METAR KOLY 050835Z AUTO 35009KT 10SM SCT110 M07/M13 A3034 RMK AO2

More Conditions Fewer Conditions

10-Day Weather Forecast

Almanac

Astronomy

Mar. 05, 2015 Rise Set
Actual Time
Civil Twilight
Nautical Twilight
Astronomical Twilight
Moon
Length of Visible Light
Length of Day
Tomorrow will be .
, % of the Moon is Illuminated

Today's Extremes

State Highs State Lows

Community

WunderPhotos

Upload Photos

1,802,704 photos uploaded!

WunderBlogs® & News

Nearby

Air Quality

  Air Quality AQ Index Pollutant
Not available.

Snow Depth

Station Depth Elevation

Earthquake Activity

City Distance Mag. Time & Date
Minimum magnitude displayed is 2.5.

Coastal Water Temperatures

Place Temperature

Nearby Weather Stations